Time;durP1;ratioP1;P1;durP2;ratioP2;P2;SDS_P1;SDS_P2;PMS_P1;PMS_P2;Temp;Humidity;BMP_temperature;BMP_pressure;BME280_temperature;BME280_humidity;BME280_pressure;Samples;Min_cycle;Max_cycle;Signal;HPM_P1;HPM_P2
2023/07/18 00:01:27;;;;;;;10.05;4.05;;;15.40;99.90;;;;;;5112327;28;20090;-50
2023/07/18 00:03:53;;;;;;;8.60;3.30;;;15.30;99.90;;;;;;5112364;28;20047;-51
2023/07/18 00:06:19;;;;;;;11.23;3.90;;;15.30;99.90;;;;;;5096932;28;20036;-47
2023/07/18 00:08:45;;;;;;;10.45;3.67;;;15.20;99.90;;;;;;5091451;28;20040;-49
2023/07/18 00:11:10;;;;;;;10.90;3.78;;;15.30;99.90;;;;;;5099258;28;20040;-50
2023/07/18 00:13:36;;;;;;;9.48;3.63;;;15.20;99.90;;;;;;5094409;28;20043;-50
2023/07/18 00:16:02;;;;;;;8.18;3.47;;;15.20;99.90;;;;;;5112242;28;20040;-51
2023/07/18 00:18:27;;;;;;;11.07;3.63;;;15.20;99.90;;;;;;5100221;28;20028;-50
2023/07/18 00:20:53;;;;;;;9.60;3.40;;;15.20;99.90;;;;;;5091492;28;20043;-50
2023/07/18 00:23:19;;;;;;;9.32;3.75;;;15.10;99.90;;;;;;5104983;28;20039;-50
2023/07/18 00:25:44;;;;;;;10.40;3.80;;;15.10;99.90;;;;;;5090330;28;20116;-50
2023/07/18 00:28:10;;;;;;;8.70;3.85;;;15.10;99.90;;;;;;5091484;28;20032;-50
2023/07/18 00:30:36;;;;;;;9.50;3.97;;;15.10;99.90;;;;;;5091573;28;20044;-48
2023/07/18 00:33:02;;;;;;;9.30;3.58;;;15.10;99.90;;;;;;5073614;28;20438;-50
2023/07/18 00:35:28;;;;;;;9.05;3.65;;;15.10;99.90;;;;;;5091592;28;20035;-51
2023/07/18 00:37:54;;;;;;;10.18;3.78;;;15.00;99.90;;;;;;5091485;28;20040;-51
2023/07/18 00:40:19;;;;;;;12.55;4.03;;;15.00;99.90;;;;;;5091306;28;20093;-46
2023/07/18 00:42:47;;;;;;;9.15;3.88;;;15.00;99.90;;;;;;5091139;28;20047;-49
2023/07/18 00:45:13;;;;;;;7.38;3.45;;;14.90;99.90;;;;;;5091309;28;20125;-47
2023/07/18 00:47:42;;;;;;;9.77;3.92;;;14.90;99.90;;;;;;5089972;28;20494;-49
2023/07/18 00:50:10;;;;;;;9.30;3.58;;;14.90;99.90;;;;;;5091006;28;20182;-52
2023/07/18 00:52:41;;;;;;;12.10;3.80;;;14.90;99.90;;;;;;5091054;28;20036;-51
2023/07/18 00:55:12;;;;;;;6.88;3.83;;;14.80;99.90;;;;;;5103224;28;20060;-50
2023/07/18 00:57:42;;;;;;;12.00;3.88;;;14.80;99.90;;;;;;5111910;28;20464;-50
2023/07/18 01:00:11;;;;;;;7.65;3.95;;;14.80;99.90;;;;;;5111445;28;20048;-49
2023/07/18 01:02:38;;;;;;;9.00;3.65;;;14.80;99.90;;;;;;5111562;28;20039;-50
2023/07/18 01:05:04;;;;;;;10.45;4.15;;;14.80;99.90;;;;;;5111061;28;20126;-49
2023/07/18 01:07:30;;;;;;;10.63;3.72;;;14.80;99.90;;;;;;5111601;28;20123;-48
2023/07/18 01:10:34;;;;;;;8.82;3.85;;;14.70;99.90;;;;;;5110997;28;20043;-48
2023/07/18 01:13:00;;;;;;;7.72;3.65;;;14.80;99.90;;;;;;5051482;28;20039;-46
2023/07/18 01:15:29;;;;;;;9.38;3.42;;;14.70;99.90;;;;;;5068115;28;20036;-50
2023/07/18 01:17:55;;;;;;;12.57;3.85;;;14.70;99.90;;;;;;5089155;28;20047;-51
2023/07/18 01:20:23;;;;;;;9.90;3.85;;;14.70;99.90;;;;;;5092283;28;20501;-50
2023/07/18 01:22:53;;;;;;;9.80;3.63;;;14.70;99.90;;;;;;5111350;28;20036;-45
2023/07/18 01:25:19;;;;;;;11.13;3.60;;;14.60;99.90;;;;;;5110887;28;20058;-52
2023/07/18 01:27:49;;;;;;;11.13;4.10;;;14.60;99.90;;;;;;5106639;28;20062;-48
2023/07/18 01:30:19;;;;;;;10.40;4.00;;;14.60;99.90;;;;;;5090793;28;20065;-50
2023/07/18 01:32:48;;;;;;;11.93;3.55;;;14.60;99.90;;;;;;5090816;28;20036;-49
2023/07/18 01:35:15;;;;;;;10.23;3.80;;;14.70;99.90;;;;;;5106361;28;20040;-49
2023/07/18 01:37:44;;;;;;;11.27;4.20;;;14.60;99.90;;;;;;5090862;28;20024;-52
2023/07/18 01:40:15;;;;;;;12.60;4.07;;;14.60;99.90;;;;;;5092789;28;20475;-48
2023/07/18 01:42:42;;;;;;;11.43;4.13;;;14.60;99.90;;;;;;5110823;28;20092;-49
2023/07/18 01:45:09;;;;;;;11.15;4.32;;;14.60;99.90;;;;;;5110805;28;20391;-48
2023/07/18 01:47:37;;;;;;;10.40;3.92;;;14.60;99.90;;;;;;5092374;28;20544;-52
2023/07/18 01:50:04;;;;;;;12.40;4.05;;;14.60;99.90;;;;;;5110661;28;20048;-48
2023/07/18 01:52:31;;;;;;;11.90;4.25;;;14.60;99.90;;;;;;5092491;28;20123;-49
2023/07/18 01:54:58;;;;;;;13.18;4.68;;;14.50;99.90;;;;;;5100134;28;20196;-47
2023/07/18 01:57:31;;;;;;;13.27;4.38;;;14.50;99.90;;;;;;5088765;28;20090;-50
2023/07/18 02:00:00;;;;;;;10.00;4.25;;;14.50;99.90;;;;;;5070424;28;20040;-50
2023/07/18 02:02:28;;;;;;;9.10;4.22;;;14.50;99.90;;;;;;5087488;28;20119;-48
2023/07/18 02:04:53;;;;;;;11.45;4.40;;;14.50;99.90;;;;;;5090473;28;20499;-49
2023/07/18 02:07:19;;;;;;;9.07;4.00;;;14.50;99.90;;;;;;5090530;28;20040;-49
2023/07/18 02:09:44;;;;;;;10.73;4.68;;;14.40;99.90;;;;;;5090193;28;20459;-48
2023/07/18 02:12:10;;;;;;;10.90;4.05;;;14.40;99.90;;;;;;5090604;28;20044;-46
2023/07/18 02:14:36;;;;;;;9.93;3.90;;;14.40;99.90;;;;;;5094390;28;20150;-48
2023/07/18 02:17:03;;;;;;;10.07;4.15;;;14.40;99.90;;;;;;5092680;28;20343;-50
2023/07/18 02:19:29;;;;;;;9.85;4.43;;;14.30;99.90;;;;;;5093755;28;20097;-46
2023/07/18 02:21:54;;;;;;;11.52;4.00;;;14.30;99.90;;;;;;5076120;28;20040;-48
2023/07/18 02:24:20;;;;;;;10.60;3.90;;;14.30;99.90;;;;;;5093988;28;20032;-49
2023/07/18 02:26:46;;;;;;;11.85;4.03;;;14.30;99.90;;;;;;5092684;28;20126;-51
2023/07/18 02:29:13;;;;;;;12.57;4.15;;;14.30;99.90;;;;;;5094126;28;20364;-48
2023/07/18 02:31:39;;;;;;;11.90;4.72;;;14.20;99.90;;;;;;5093687;28;20048;-50
2023/07/18 02:34:05;;;;;;;12.48;4.10;;;14.20;99.90;;;;;;5080006;28;20049;-49
2023/07/18 02:36:32;;;;;;;10.82;4.10;;;14.20;99.90;;;;;;5073362;28;20486;-50
2023/07/18 02:38:59;;;;;;;12.85;3.22;;;14.20;99.90;;;;;;5079844;28;20415;-47
2023/07/18 02:41:24;;;;;;;8.32;4.10;;;14.10;99.90;;;;;;5074964;28;20043;-47
2023/07/18 02:43:50;;;;;;;12.10;4.15;;;14.10;99.90;;;;;;5073579;28;20032;-49
2023/07/18 02:46:16;;;;;;;12.00;4.22;;;14.10;99.90;;;;;;5055293;28;20396;-50
2023/07/18 02:48:42;;;;;;;14.00;4.57;;;14.10;99.90;;;;;;5073107;28;20124;-47
2023/07/18 02:51:07;;;;;;;12.20;4.53;;;14.10;99.90;;;;;;5073219;28;20045;-50
2023/07/18 02:53:33;;;;;;;9.00;4.60;;;14.10;99.90;;;;;;5055981;28;20476;-50
2023/07/18 02:55:59;;;;;;;12.43;4.63;;;14.10;99.90;;;;;;5089488;28;20541;-46
2023/07/18 02:58:25;;;;;;;10.23;3.92;;;14.00;99.90;;;;;;5093295;28;20446;-49
2023/07/18 03:00:51;;;;;;;10.57;4.63;;;14.00;99.90;;;;;;5093389;28;20443;-50
2023/07/18 03:03:17;;;;;;;14.20;4.90;;;14.00;99.90;;;;;;5093126;28;20047;-50
2023/07/18 03:05:43;;;;;;;11.30;4.15;;;14.00;99.90;;;;;;5093036;28;20044;-47
2023/07/18 03:08:08;;;;;;;12.82;4.45;;;14.00;99.90;;;;;;5085854;28;20044;-51
2023/07/18 03:10:35;;;;;;;12.77;4.80;;;14.00;99.90;;;;;;5092891;28;20044;-46
2023/07/18 03:13:01;;;;;;;9.63;4.40;;;13.90;99.90;;;;;;5092175;28;20044;-50
2023/07/18 03:15:27;;;;;;;11.52;4.78;;;13.90;99.90;;;;;;5092643;28;20145;-48
2023/07/18 03:17:52;;;;;;;11.30;4.38;;;13.90;99.90;;;;;;5086857;28;20082;-46
2023/07/18 03:20:19;;;;;;;11.23;3.08;;;13.90;99.90;;;;;;5072273;28;20114;-50
2023/07/18 03:22:46;;;;;;;15.85;5.57;;;13.80;99.90;;;;;;5072561;28;20111;-48
2023/07/18 03:25:12;;;;;;;13.25;4.50;;;13.80;99.90;;;;;;5071409;28;20048;-48
2023/07/18 03:27:37;;;;;;;11.48;4.55;;;13.80;99.90;;;;;;5086293;28;20036;-52
2023/07/18 03:30:06;;;;;;;11.18;4.80;;;13.80;99.90;;;;;;5092810;28;20046;-47
2023/07/18 03:32:35;;;;;;;12.65;4.78;;;13.80;99.90;;;;;;5092535;28;20040;-49
2023/07/18 03:35:00;;;;;;;11.48;4.60;;;13.80;99.90;;;;;;5091621;28;20055;-50
2023/07/18 03:37:27;;;;;;;14.02;4.80;;;13.80;99.90;;;;;;5092361;28;20040;-48
2023/07/18 03:39:53;;;;;;;13.40;4.88;;;13.70;99.90;;;;;;5092685;28;20075;-47
2023/07/18 03:42:19;;;;;;;14.70;4.45;;;13.80;99.90;;;;;;5090887;28;20086;-47
2023/07/18 03:44:44;;;;;;;14.20;4.60;;;13.70;99.90;;;;;;5080324;28;20038;-51
2023/07/18 03:47:11;;;;;;;14.50;4.90;;;13.70;99.90;;;;;;5092305;28;20047;-51
2023/07/18 03:49:36;;;;;;;11.35;5.13;;;13.70;99.90;;;;;;5090736;28;20036;-49
2023/07/18 03:52:03;;;;;;;10.98;4.15;;;13.70;99.90;;;;;;5092371;28;20051;-48
2023/07/18 03:54:29;;;;;;;11.27;5.13;;;13.70;99.90;;;;;;5096829;28;20059;-48
2023/07/18 03:56:55;;;;;;;12.88;4.38;;;13.70;99.90;;;;;;5112954;28;20032;-51
2023/07/18 03:59:21;;;;;;;12.27;4.75;;;13.70;99.90;;;;;;5104487;28;20114;-48
2023/07/18 04:01:47;;;;;;;11.50;4.68;;;13.70;99.90;;;;;;5092173;28;20040;-47
2023/07/18 04:04:13;;;;;;;13.68;4.55;;;13.70;99.90;;;;;;5092224;28;20471;-47
2023/07/18 04:06:39;;;;;;;11.27;5.35;;;13.70;99.90;;;;;;5091950;28;20115;-51
2023/07/18 04:09:05;;;;;;;13.80;4.95;;;13.70;99.90;;;;;;5092162;28;20031;-48
2023/07/18 04:11:31;;;;;;;16.63;3.00;;;13.70;99.90;;;;;;5092015;28;20051;-48
2023/07/18 04:13:57;;;;;;;9.90;4.57;;;13.70;99.90;;;;;;5077516;28;20488;-47
2023/07/18 04:16:22;;;;;;;12.55;4.38;;;13.70;99.90;;;;;;5090656;28;20098;-50
2023/07/18 04:18:48;;;;;;;11.10;5.22;;;13.70;99.90;;;;;;5110075;28;20047;-48
2023/07/18 04:21:14;;;;;;;13.00;4.70;;;13.70;99.90;;;;;;5111320;28;20042;-48
2023/07/18 04:23:40;;;;;;;9.82;4.82;;;13.80;99.90;;;;;;5112059;28;20312;-51
2023/07/18 04:26:08;;;;;;;12.40;4.05;;;13.70;99.90;;;;;;5111920;28;20487;-47
2023/07/18 04:28:36;;;;;;;14.15;2.63;;;13.80;99.90;;;;;;5112399;28;20093;-50
2023/07/18 04:31:02;;;;;;;15.82;4.55;;;13.70;99.90;;;;;;5112074;28;20450;-49
2023/07/18 04:33:34;;;;;;;11.95;4.43;;;13.80;99.90;;;;;;5111795;28;20039;-48
2023/07/18 04:36:00;;;;;;;14.48;5.00;;;13.80;99.90;;;;;;5111186;28;20046;-51
2023/07/18 04:38:26;;;;;;;8.88;4.05;;;13.80;99.90;;;;;;5096297;28;20568;-50
2023/07/18 04:40:52;;;;;;;14.15;3.20;;;13.80;99.90;;;;;;5091328;28;20065;-51
2023/07/18 04:43:19;;;;;;;11.10;4.57;;;13.80;99.90;;;;;;5092162;28;20034;-50
2023/07/18 04:45:46;;;;;;;11.85;4.53;;;13.90;99.90;;;;;;5111601;28;20085;-50
2023/07/18 04:48:17;;;;;;;12.48;4.35;;;13.90;99.90;;;;;;5093525;28;20032;-49
2023/07/18 04:50:46;;;;;;;8.38;4.32;;;13.90;99.90;;;;;;5093653;28;20067;-50
2023/07/18 04:53:12;;;;;;;10.93;2.75;;;13.90;99.90;;;;;;5091325;28;20111;-46
2023/07/18 04:55:39;;;;;;;10.68;3.00;;;13.90;99.90;;;;;;5105625;28;20426;-48
2023/07/18 04:58:07;;;;;;;11.95;4.60;;;13.90;99.90;;;;;;5111328;28;20053;-47
2023/07/18 05:00:33;;;;;;;11.93;3.92;;;14.00;99.90;;;;;;5092725;28;20394;-49
2023/07/18 05:03:00;;;;;;;10.27;4.30;;;14.00;99.90;;;;;;5091439;28;20035;-48
2023/07/18 05:05:27;;;;;;;10.40;4.05;;;14.00;99.90;;;;;;5092412;28;20403;-49
2023/07/18 05:08:00;;;;;;;10.88;4.05;;;14.00;99.90;;;;;;5111047;28;20207;-49
2023/07/18 05:10:26;;;;;;;10.95;4.38;;;14.00;99.90;;;;;;5111218;28;20130;-48
2023/07/18 05:12:54;;;;;;;10.05;4.20;;;14.10;99.90;;;;;;5111245;28;20478;-49
2023/07/18 05:15:19;;;;;;;11.80;4.38;;;14.10;99.90;;;;;;5111148;28;20409;-49
2023/07/18 05:17:46;;;;;;;11.07;4.43;;;14.10;99.90;;;;;;5095646;28;20028;-50
2023/07/18 05:20:12;;;;;;;9.63;4.15;;;14.10;99.90;;;;;;5098744;28;20075;-49
2023/07/18 05:22:44;;;;;;;12.05;3.28;;;14.10;99.90;;;;;;5092853;28;20040;-49
2023/07/18 05:25:13;;;;;;;8.38;3.33;;;14.10;99.90;;;;;;5108088;28;20035;-49
2023/07/18 05:27:39;;;;;;;11.82;4.93;;;14.10;99.90;;;;;;5111320;28;20114;-49
2023/07/18 05:30:18;;;;;;;10.13;4.68;;;14.20;99.90;;;;;;5090858;28;20043;-49
2023/07/18 05:32:45;;;;;;;9.68;4.32;;;14.20;99.90;;;;;;5091241;28;20242;-51
2023/07/18 05:35:13;;;;;;;12.02;4.65;;;14.30;99.90;;;;;;5093502;28;20522;-51
2023/07/18 05:37:40;;;;;;;8.02;4.15;;;14.40;99.90;;;;;;5089586;28;20058;-52
2023/07/18 05:40:09;;;;;;;11.27;4.50;;;14.40;99.90;;;;;;5090632;28;20040;-46
2023/07/18 05:42:35;;;;;;;15.18;4.72;;;14.50;99.90;;;;;;5090779;28;20175;-49
2023/07/18 05:45:01;;;;;;;11.68;4.60;;;14.60;99.90;;;;;;5092792;28;20110;-48
2023/07/18 05:47:27;;;;;;;10.15;4.03;;;14.60;99.90;;;;;;5112169;28;20119;-47
2023/07/18 05:49:52;;;;;;;11.18;4.70;;;14.70;99.90;;;;;;5103608;28;20040;-48
2023/07/18 05:52:18;;;;;;;12.18;4.72;;;14.80;99.90;;;;;;5096769;28;20053;-49
2023/07/18 05:54:45;;;;;;;10.90;4.63;;;14.90;99.90;;;;;;5114812;28;20541;-48
2023/07/18 05:57:10;;;;;;;9.70;4.25;;;15.00;99.90;;;;;;5096527;28;20036;-51
2023/07/18 05:59:36;;;;;;;10.70;3.35;;;15.10;99.90;;;;;;5113353;28;20092;-48
2023/07/18 06:02:05;;;;;;;8.57;3.83;;;15.20;99.90;;;;;;5113545;28;20032;-50
2023/07/18 06:04:30;;;;;;;8.18;3.88;;;15.30;99.90;;;;;;5101804;28;20463;-52
2023/07/18 06:06:56;;;;;;;10.55;3.92;;;15.30;99.90;;;;;;5094715;28;20032;-46
2023/07/18 06:09:22;;;;;;;12.63;4.50;;;15.30;99.90;;;;;;5094563;28;20479;-46
2023/07/18 06:11:48;;;;;;;10.68;5.03;;;15.40;99.90;;;;;;5113335;28;20486;-49
2023/07/18 06:14:13;;;;;;;11.35;4.75;;;15.40;99.90;;;;;;5114402;28;20044;-48
2023/07/18 06:16:39;;;;;;;11.65;4.20;;;15.50;99.90;;;;;;5114439;28;20076;-48
2023/07/18 06:19:04;;;;;;;8.98;3.97;;;15.50;99.90;;;;;;5114394;28;20039;-49
2023/07/18 06:21:30;;;;;;;14.05;4.65;;;15.60;99.90;;;;;;5113993;28;20063;-49
2023/07/18 06:23:57;;;;;;;10.93;3.53;;;15.60;99.90;;;;;;5114569;28;20136;-47
2023/07/18 06:26:23;;;;;;;9.30;4.03;;;15.60;99.90;;;;;;5096087;28;20502;-48
2023/07/18 06:28:49;;;;;;;7.45;3.58;;;15.70;99.90;;;;;;5094363;28;20043;-48
2023/07/18 06:31:15;;;;;;;10.38;3.63;;;15.70;99.90;;;;;;5094010;28;20522;-50
2023/07/18 06:33:41;;;;;;;10.25;3.70;;;15.80;99.90;;;;;;5093727;28;20043;-49
2023/07/18 06:36:07;;;;;;;12.05;3.10;;;15.90;99.90;;;;;;5094063;28;20044;-49
2023/07/18 06:38:33;;;;;;;12.38;3.78;;;16.00;99.90;;;;;;5093979;28;20040;-47
2023/07/18 06:40:59;;;;;;;10.63;3.50;;;16.10;99.90;;;;;;5093928;28;20066;-50
2023/07/18 06:43:24;;;;;;;10.10;3.42;;;16.10;99.90;;;;;;5097268;28;20046;-49
2023/07/18 06:45:50;;;;;;;8.82;3.60;;;16.30;99.90;;;;;;5078212;28;20510;-50
2023/07/18 06:48:16;;;;;;;10.50;3.30;;;16.30;99.90;;;;;;5084192;28;20044;-50
2023/07/18 06:50:53;;;;;;;10.07;3.70;;;16.40;99.90;;;;;;5095962;28;20680;-48
2023/07/18 06:53:20;;;;;;;10.82;3.00;;;16.40;99.90;;;;;;5098174;28;20043;-50
2023/07/18 06:55:50;;;;;;;9.20;3.50;;;16.50;99.90;;;;;;5077493;28;20060;-48
2023/07/18 06:58:17;;;;;;;10.80;3.70;;;16.60;99.90;;;;;;5091771;28;20384;-53
2023/07/18 07:00:44;;;;;;;9.45;4.10;;;16.70;99.90;;;;;;5093488;28;20040;-50
2023/07/18 07:03:10;;;;;;;11.77;4.05;;;16.80;99.90;;;;;;5100157;27;20522;-51
2023/07/18 07:05:40;;;;;;;9.93;4.00;;;16.90;99.90;;;;;;5098527;27;20098;-51
2023/07/18 07:08:08;;;;;;;12.18;3.92;;;17.00;99.90;;;;;;5086526;28;20039;-51
2023/07/18 07:10:41;;;;;;;11.45;4.05;;;16.90;99.90;;;;;;5085541;27;20089;-48
2023/07/18 07:13:08;;;;;;;10.73;4.18;;;17.00;99.90;;;;;;5091228;27;20044;-47
2023/07/18 07:15:34;;;;;;;12.88;3.85;;;17.10;99.90;;;;;;5105114;27;20043;-51
2023/07/18 07:18:00;;;;;;;12.50;4.13;;;17.10;99.90;;;;;;5102690;28;20150;-51
2023/07/18 07:20:28;;;;;;;11.82;4.07;;;17.10;99.90;;;;;;5081774;27;20488;-51
2023/07/18 07:22:54;;;;;;;11.43;3.70;;;17.20;99.90;;;;;;5104102;27;20043;-48
2023/07/18 07:25:20;;;;;;;11.20;3.75;;;17.30;99.90;;;;;;5101648;27;20088;-50
2023/07/18 07:27:46;;;;;;;10.63;3.70;;;17.40;99.90;;;;;;5101233;27;20038;-49
2023/07/18 07:30:16;;;;;;;9.35;3.47;;;17.40;99.90;;;;;;5105702;27;20035;-50
2023/07/18 07:32:43;;;;;;;11.32;3.38;;;17.50;99.90;;;;;;5101578;28;20082;-49
2023/07/18 07:35:09;;;;;;;14.00;3.33;;;17.60;99.90;;;;;;5102642;27;20383;-49
2023/07/18 07:37:36;;;;;;;12.30;4.55;;;17.60;99.90;;;;;;5103315;27;20043;-49
2023/07/18 07:40:06;;;;;;;12.95;4.05;;;17.60;99.90;;;;;;5104393;27;20039;-52
2023/07/18 07:42:32;;;;;;;11.48;3.90;;;17.70;99.90;;;;;;5103730;27;23365;-49
2023/07/18 07:44:58;;;;;;;10.57;4.10;;;17.80;99.90;;;;;;5104540;28;20539;-51
2023/07/18 07:47:23;;;;;;;14.30;4.20;;;17.90;99.90;;;;;;5103916;27;20051;-49
2023/07/18 07:49:49;;;;;;;11.23;4.18;;;18.00;99.90;;;;;;5080128;28;20122;-49
2023/07/18 07:52:15;;;;;;;14.70;4.30;;;18.10;99.90;;;;;;5103102;28;20112;-46
2023/07/18 07:54:40;;;;;;;14.02;4.30;;;18.20;99.90;;;;;;5097277;28;20052;-49
2023/07/18 07:57:06;;;;;;;15.45;4.60;;;18.20;99.90;;;;;;5084142;28;20521;-50
2023/07/18 07:59:32;;;;;;;13.80;4.53;;;18.30;99.90;;;;;;5085010;28;20044;-48
2023/07/18 08:01:57;;;;;;;16.85;4.25;;;18.30;99.90;;;;;;5084939;28;20054;-49
2023/07/18 08:04:23;;;;;;;11.68;4.10;;;18.40;99.90;;;;;;5083596;28;20032;-47
2023/07/18 08:06:49;;;;;;;16.85;3.42;;;18.40;99.90;;;;;;5084251;28;20562;-47
2023/07/18 08:09:15;;;;;;;13.55;4.22;;;18.40;99.90;;;;;;5083306;28;20115;-47
2023/07/18 08:11:40;;;;;;;14.77;4.18;;;18.50;99.90;;;;;;5063331;28;20130;-50
2023/07/18 08:14:07;;;;;;;12.93;3.65;;;18.50;99.90;;;;;;5084495;28;20048;-49
2023/07/18 08:16:33;;;;;;;12.15;3.90;;;18.50;99.90;;;;;;5082333;28;20040;-50
2023/07/18 08:18:58;;;;;;;12.88;4.07;;;18.50;99.90;;;;;;5083164;28;20494;-51
2023/07/18 08:21:25;;;;;;;17.27;4.82;;;18.50;99.90;;;;;;5083648;28;20049;-49
2023/07/18 08:23:51;;;;;;;12.15;4.10;;;18.50;99.90;;;;;;5083165;28;20024;-52
2023/07/18 08:26:16;;;;;;;11.98;3.90;;;18.60;99.90;;;;;;5082279;28;20378;-50
2023/07/18 08:28:42;;;;;;;13.57;3.83;;;18.50;99.90;;;;;;5083352;28;20391;-49
2023/07/18 08:31:08;;;;;;;15.52;4.10;;;18.60;99.90;;;;;;5063961;28;20150;-48
2023/07/18 08:33:33;;;;;;;12.10;3.90;;;18.60;99.90;;;;;;5085108;28;20028;-48
2023/07/18 08:35:59;;;;;;;13.98;4.25;;;18.70;99.90;;;;;;5080973;28;20044;-51
2023/07/18 08:38:25;;;;;;;12.82;3.90;;;18.80;99.90;;;;;;5082140;28;20514;-48
2023/07/18 08:40:51;;;;;;;14.02;3.88;;;18.80;99.90;;;;;;5082252;28;20052;-51
2023/07/18 08:43:18;;;;;;;10.88;3.60;;;18.90;99.90;;;;;;5081332;28;20039;-50
2023/07/18 08:45:45;;;;;;;9.82;3.13;;;19.00;99.90;;;;;;5063580;28;20502;-48
2023/07/18 08:48:13;;;;;;;15.30;3.40;;;19.00;99.90;;;;;;5082143;28;20040;-50
2023/07/18 08:50:40;;;;;;;12.10;2.92;;;19.20;99.90;;;;;;5083246;28;20039;-48
2023/07/18 08:53:06;;;;;;;13.32;3.60;;;19.30;99.90;;;;;;5083389;28;20093;-49
2023/07/18 08:55:32;;;;;;;11.50;3.13;;;19.40;99.90;;;;;;5095205;28;20453;-49
2023/07/18 08:58:00;;;;;;;9.35;2.90;;;19.50;99.90;;;;;;5101183;28;20048;-47
2023/07/18 09:00:25;;;;;;;11.25;3.55;;;19.70;99.90;;;;;;5082179;28;20047;-48
2023/07/18 09:02:51;;;;;;;11.65;3.08;;;19.80;99.90;;;;;;5099459;28;20368;-47
2023/07/18 09:05:37;;;;;;;10.95;2.88;;;19.90;99.90;;;;;;5099545;28;20031;-51
2023/07/18 09:08:06;;;;;;;6.72;1.80;;;20.10;99.90;;;;;;5103561;28;20036;-49
2023/07/18 09:10:32;;;;;;;9.30;1.67;;;20.20;99.90;;;;;;5106534;28;20670;-52
2023/07/18 09:13:05;;;;;;;8.27;2.22;;;20.40;99.90;;;;;;5101023;28;20048;-47
2023/07/18 09:15:36;;;;;;;8.27;2.33;;;20.50;99.90;;;;;;5101478;28;20508;-47
2023/07/18 09:18:12;;;;;;;8.80;2.42;;;20.60;99.90;;;;;;5100939;28;20391;-53
2023/07/18 09:20:38;;;;;;;9.00;2.03;;;20.70;99.90;;;;;;5100681;28;20047;-47
2023/07/18 09:23:04;;;;;;;5.63;2.10;;;20.70;99.90;;;;;;5100969;28;20490;-48
2023/07/18 09:25:36;;;;;;;8.75;1.70;;;20.80;99.90;;;;;;5109552;28;20428;-49
2023/07/18 09:28:02;;;;;;;8.85;1.60;;;20.80;99.90;;;;;;5102464;28;20502;-50
2023/07/18 09:30:36;;;;;;;7.95;1.88;;;20.90;99.90;;;;;;5102385;28;20047;-49
2023/07/18 09:33:08;;;;;;;6.88;1.30;;;21.00;99.90;;;;;;5108365;28;20132;-52
2023/07/18 09:35:39;;;;;;;5.63;1.23;;;21.10;99.90;;;;;;5107956;28;20084;-49
2023/07/18 09:38:07;;;;;;;6.55;1.73;;;21.20;99.90;;;;;;5101674;28;20047;-48
2023/07/18 09:40:33;;;;;;;5.18;1.35;;;21.30;99.90;;;;;;5084788;28;20044;-50
2023/07/18 09:43:01;;;;;;;9.20;1.50;;;21.40;99.90;;;;;;5105645;28;20043;-50
2023/07/18 09:45:29;;;;;;;5.35;1.33;;;21.40;99.90;;;;;;5101201;28;20043;-52
2023/07/18 09:47:54;;;;;;;5.95;1.42;;;21.50;99.90;;;;;;5104438;28;20043;-51
2023/07/18 09:50:20;;;;;;;5.38;1.20;;;21.70;99.90;;;;;;5100293;28;20031;-49
2023/07/18 09:52:49;;;;;;;4.65;1.52;;;21.90;99.90;;;;;;5105533;28;20093;-52
2023/07/18 09:55:26;;;;;;;5.10;1.35;;;21.90;99.90;;;;;;5104744;28;20059;-48
2023/07/18 09:57:55;;;;;;;9.02;1.88;;;22.00;99.90;;;;;;5106936;28;20440;-50
2023/07/18 10:00:23;;;;;;;4.65;1.38;;;22.20;99.90;;;;;;5109109;28;20028;-52
2023/07/18 10:02:49;;;;;;;3.58;1.02;;;22.20;99.90;;;;;;5084897;28;20441;-49
2023/07/18 10:05:15;;;;;;;2.97;0.88;;;22.30;99.90;;;;;;5110266;28;20500;-50
2023/07/18 10:07:43;;;;;;;5.35;1.40;;;22.40;99.90;;;;;;5088956;28;20115;-51
2023/07/18 10:10:10;;;;;;;8.57;1.45;;;22.50;99.90;;;;;;5110130;28;20043;-49
2023/07/18 10:12:37;;;;;;;5.10;1.42;;;22.60;99.90;;;;;;5110053;28;20458;-53
2023/07/18 10:15:04;;;;;;;5.53;1.30;;;22.70;99.90;;;;;;5109898;28;20547;-48
2023/07/18 10:17:33;;;;;;;5.85;1.25;;;22.70;99.90;;;;;;5109953;28;20498;-50
2023/07/18 10:20:21;;;;;;;6.82;1.50;;;22.80;99.90;;;;;;5109407;28;20040;-48
2023/07/18 10:22:57;;;;;;;5.40;1.40;;;22.80;99.90;;;;;;5108834;28;20510;-48
2023/07/18 10:25:25;;;;;;;4.13;1.13;;;22.70;99.90;;;;;;5109441;28;20393;-48
2023/07/18 10:27:52;;;;;;;4.10;1.10;;;22.70;99.90;;;;;;5068616;28;20038;-48
2023/07/18 10:30:19;;;;;;;3.88;1.00;;;22.60;99.90;;;;;;5090945;28;20039;-49
2023/07/18 10:32:51;;;;;;;5.10;1.30;;;22.60;99.90;;;;;;5109574;28;20036;-50
2023/07/18 10:35:18;;;;;;;5.00;1.33;;;22.70;99.90;;;;;;5113553;28;20063;-52
2023/07/18 10:37:46;;;;;;;3.10;1.00;;;22.70;99.90;;;;;;5113243;28;20062;-50
2023/07/18 10:40:31;;;;;;;6.15;1.10;;;22.80;99.90;;;;;;5112879;28;20065;-48
2023/07/18 10:42:57;;;;;;;4.72;0.93;;;22.80;99.90;;;;;;5112898;28;20039;-52
2023/07/18 10:45:22;;;;;;;5.30;0.93;;;22.90;99.90;;;;;;5113141;28;20183;-49
2023/07/18 10:47:48;;;;;;;5.38;0.98;;;23.00;99.90;;;;;;5113324;28;20487;-51
2023/07/18 10:50:14;;;;;;;3.30;0.95;;;23.20;99.90;;;;;;5092037;28;20089;-50
2023/07/18 10:52:41;;;;;;;5.03;1.10;;;23.20;99.90;;;;;;5077821;28;20039;-52
2023/07/18 10:55:07;;;;;;;5.75;0.90;;;23.30;99.90;;;;;;5110439;28;20058;-51
2023/07/18 10:57:35;;;;;;;4.55;0.95;;;23.30;99.90;;;;;;5112910;28;20081;-49
2023/07/18 11:00:05;;;;;;;4.80;0.93;;;23.40;99.90;;;;;;5113097;28;20078;-52
2023/07/18 11:02:44;;;;;;;4.85;1.10;;;23.50;99.90;;;;;;5112864;28;20035;-51
2023/07/18 11:05:11;;;;;;;6.85;1.38;;;23.50;99.90;;;;;;5113255;28;20440;-50
2023/07/18 11:07:43;;;;;;;7.28;1.33;;;23.60;99.90;;;;;;5110254;28;20042;-49
2023/07/18 11:10:10;;;;;;;5.82;1.65;;;23.70;99.90;;;;;;5094462;28;20059;-52
2023/07/18 11:12:36;;;;;;;6.03;1.30;;;23.70;99.90;;;;;;5088940;28;20044;-50
2023/07/18 11:15:07;;;;;;;4.90;1.20;;;23.90;99.90;;;;;;5112907;28;20479;-50
2023/07/18 11:17:33;;;;;;;4.63;1.20;;;24.00;99.90;;;;;;5057946;28;20523;-50
2023/07/18 11:19:59;;;;;;;6.43;1.20;;;24.20;99.90;;;;;;5092303;28;20100;-53
2023/07/18 11:22:26;;;;;;;6.43;1.60;;;24.30;99.90;;;;;;5107119;28;20075;-47
2023/07/18 11:24:52;;;;;;;5.72;1.20;;;24.40;99.90;;;;;;5109747;28;20118;-49
2023/07/18 11:27:25;;;;;;;5.50;0.98;;;24.50;99.90;;;;;;5111175;28;20348;-48
2023/07/18 11:30:03;;;;;;;3.30;0.82;;;24.60;99.90;;;;;;5110703;28;20142;-51
2023/07/18 11:32:31;;;;;;;5.40;1.20;;;24.80;99.90;;;;;;5110293;28;20040;-52
2023/07/18 11:34:58;;;;;;;5.40;1.10;;;24.90;99.90;;;;;;5111752;28;20032;-49
2023/07/18 11:37:25;;;;;;;7.65;1.40;;;25.10;99.90;;;;;;5111376;28;20051;-50
2023/07/18 11:39:50;;;;;;;4.70;0.98;;;25.10;99.90;;;;;;5110274;28;20119;-50
2023/07/18 11:42:17;;;;;;;6.40;1.65;;;25.10;99.90;;;;;;5110395;28;20118;-49
2023/07/18 11:44:43;;;;;;;6.13;1.52;;;25.00;99.90;;;;;;5112320;28;20055;-51
2023/07/18 11:47:12;;;;;;;7.40;1.40;;;25.10;99.90;;;;;;5112623;28;20044;-51
2023/07/18 11:49:38;;;;;;;7.93;1.50;;;25.00;99.90;;;;;;5112158;28;20100;-50
2023/07/18 11:52:06;;;;;;;5.97;1.40;;;24.80;99.90;;;;;;5091261;28;20032;-49
2023/07/18 11:54:35;;;;;;;5.45;1.50;;;24.70;99.90;;;;;;5112097;28;20111;-48
2023/07/18 11:57:03;;;;;;;7.28;1.30;;;24.80;99.90;;;;;;5112602;28;20123;-52
2023/07/18 11:59:30;;;;;;;6.05;1.73;;;24.80;99.90;;;;;;5111964;28;20044;-50
2023/07/18 12:01:56;;;;;;;6.65;1.65;;;24.80;99.90;;;;;;5111778;28;20036;-48
2023/07/18 12:04:22;;;;;;;4.20;1.48;;;24.80;99.80;;;;;;5111745;28;20635;-53
2023/07/18 12:06:47;;;;;;;7.45;1.55;;;24.80;99.90;;;;;;5112498;28;20027;-48
2023/07/18 12:09:14;;;;;;;7.22;1.75;;;24.80;99.80;;;;;;5093946;28;20032;-52
2023/07/18 12:11:40;;;;;;;8.43;1.50;;;24.70;99.90;;;;;;5094302;28;20044;-52
2023/07/18 12:14:08;;;;;;;8.75;2.03;;;24.60;99.90;;;;;;5112103;28;20375;-49
2023/07/18 12:16:36;;;;;;;7.30;1.60;;;24.40;99.90;;;;;;5111914;28;20047;-50
2023/07/18 12:19:02;;;;;;;7.40;1.70;;;24.40;99.90;;;;;;5111829;28;20031;-53
2023/07/18 12:21:28;;;;;;;8.23;1.63;;;24.40;99.90;;;;;;5090170;28;20040;-48
2023/07/18 12:23:54;;;;;;;7.18;1.77;;;24.40;99.70;;;;;;5107138;28;20038;-52
2023/07/18 12:26:20;;;;;;;7.45;1.67;;;24.20;99.90;;;;;;5106718;28;20105;-50
2023/07/18 12:28:45;;;;;;;8.02;1.80;;;24.20;99.90;;;;;;5111292;28;20032;-48
2023/07/18 12:31:11;;;;;;;8.25;1.80;;;24.10;99.90;;;;;;5104689;28;20078;-49
2023/07/18 12:33:38;;;;;;;7.65;1.75;;;24.10;99.90;;;;;;5111013;28;20036;-49
2023/07/18 12:36:05;;;;;;;6.20;1.70;;;24.10;99.90;;;;;;5089869;28;20044;-51
2023/07/18 12:38:30;;;;;;;7.85;2.00;;;24.00;99.90;;;;;;5110448;28;20032;-47
2023/07/18 12:40:57;;;;;;;7.53;1.60;;;24.10;99.90;;;;;;5111372;28;20398;-50